Time;durP1;ratioP1;P1;durP2;ratioP2;P2;SDS_P1;SDS_P2;PMS_P1;PMS_P2;Temp;Humidity;BMP_temperature;BMP_pressure;BME280_temperature;BME280_humidity;BME280_pressure;Samples;Min_cycle;Max_cycle;Signal;HPM_P1;HPM_P2
2023/12/22 00:00:08;;;;;;;7.72;2.00;;;;;;;;;;6235832;28;20112;-67
2023/12/22 00:03:09;;;;;;;11.43;2.10;;;;;;;;;;6246746;28;20416;-70
2023/12/22 00:06:11;;;;;;;9.05;1.98;;;;;;;;;;6239808;28;20421;-71
2023/12/22 00:09:12;;;;;;;9.60;1.83;;;;;;;;;;6237432;28;20064;-71
2023/12/22 00:12:12;;;;;;;7.25;2.20;;;;;;;;;;6242184;28;20049;-70
2023/12/22 00:15:13;;;;;;;7.63;2.17;;;;;;;;;;6243280;28;20053;-70
2023/12/22 00:18:14;;;;;;;14.38;2.30;;;;;;;;;;6242326;28;20041;-68
2023/12/22 00:21:14;;;;;;;8.98;2.30;;;;;;;;;;6240423;28;20389;-70
2023/12/22 00:24:15;;;;;;;10.05;2.47;;;;;;;;;;6240704;28;20049;-68
2023/12/22 00:27:16;;;;;;;7.75;2.55;;;;;;;;;;6246160;28;20041;-70
2023/12/22 00:30:17;;;;;;;9.23;2.25;;;;;;;;;;6246491;28;20090;-68
2023/12/22 00:33:17;;;;;;;12.93;2.65;;;;;;;;;;6239672;28;20589;-70
2023/12/22 00:36:20;;;;;;;10.60;1.88;;;;;;;;;;6239603;28;20049;-70
2023/12/22 00:39:22;;;;;;;;;;;;;;;;;;6243586;28;20048;-70
2023/12/22 00:42:23;;;;;;;7.45;2.00;;;;;;;;;;6242780;28;19925;-68
2023/12/22 00:45:23;;;;;;;5.25;1.65;;;;;;;;;;6242413;28;20517;-71
2023/12/22 00:48:24;;;;;;;6.75;2.05;;;;;;;;;;6242553;28;20029;-68
2023/12/22 00:51:26;;;;;;;9.25;2.05;;;;;;;;;;6241847;28;20450;-68
2023/12/22 00:54:28;;;;;;;11.75;1.90;;;;;;;;;;6236321;28;20112;-69
2023/12/22 00:57:30;;;;;;;8.88;1.98;;;;;;;;;;6239073;28;20431;-68
2023/12/22 01:00:30;;;;;;;7.53;2.03;;;;;;;;;;6237617;28;20059;-69
2023/12/22 01:03:31;;;;;;;9.15;2.67;;;;;;;;;;6238574;28;20049;-69
2023/12/22 01:06:32;;;;;;;9.57;2.42;;;;;;;;;;6240308;28;20053;-71
2023/12/22 01:09:32;;;;;;;7.20;1.88;;;;;;;;;;6235341;28;20053;-71
2023/12/22 01:12:33;;;;;;;8.98;2.25;;;;;;;;;;6243195;28;21181;-71
2023/12/22 01:15:34;;;;;;;6.05;1.77;;;;;;;;;;6238047;28;20065;-68
2023/12/22 01:18:35;;;;;;;10.90;1.73;;;;;;;;;;6241944;28;20057;-70
2023/12/22 01:21:35;;;;;;;6.50;1.63;;;;;;;;;;6238078;28;20041;-69
2023/12/22 01:24:39;;;;;;;6.85;2.22;;;;;;;;;;6237417;28;20127;-68
2023/12/22 01:27:40;;;;;;;6.13;1.65;;;;;;;;;;6242416;28;20044;-68
2023/12/22 01:30:40;;;;;;;5.97;1.60;;;;;;;;;;6239301;28;20547;-71
2023/12/22 01:33:41;;;;;;;5.43;1.55;;;;;;;;;;6239960;28;20061;-70
2023/12/22 01:36:42;;;;;;;8.00;1.67;;;;;;;;;;6238314;28;20081;-71
2023/12/22 01:39:42;;;;;;;9.02;1.92;;;;;;;;;;6240701;28;20052;-70
2023/12/22 01:42:43;;;;;;;8.02;2.08;;;;;;;;;;6233751;28;20065;-70
2023/12/22 01:45:44;;;;;;;5.22;1.20;;;;;;;;;;6237818;28;20060;-70
2023/12/22 01:48:48;;;;;;;6.00;1.50;;;;;;;;;;6246577;28;20085;-70
2023/12/22 01:51:49;;;;;;;7.47;1.50;;;;;;;;;;6245380;28;20041;-68
2023/12/22 01:54:50;;;;;;;8.90;1.98;;;;;;;;;;6242768;28;20849;-68
2023/12/22 01:57:51;;;;;;;8.15;1.58;;;;;;;;;;6246355;28;20099;-70
2023/12/22 02:00:53;;;;;;;4.57;1.40;;;;;;;;;;6242150;28;20053;-69
2023/12/22 02:03:54;;;;;;;6.15;1.67;;;;;;;;;;6242887;28;20046;-70
2023/12/22 02:06:56;;;;;;;8.00;1.50;;;;;;;;;;6247518;28;20049;-70
2023/12/22 02:09:56;;;;;;;5.43;1.67;;;;;;;;;;6241674;28;20420;-70
2023/12/22 02:12:58;;;;;;;7.63;1.70;;;;;;;;;;6241786;28;20037;-70
2023/12/22 02:16:12;;;;;;;5.15;1.80;;;;;;;;;;6248875;28;20713;-69
2023/12/22 02:19:43;;;;;;;6.70;1.75;;;;;;;;;;6245432;28;20041;-70
2023/12/22 02:22:43;;;;;;;5.22;1.55;;;;;;;;;;6237051;28;20088;-70
2023/12/22 02:25:44;;;;;;;4.65;1.38;;;;;;;;;;6241055;28;20068;-70
2023/12/22 02:28:46;;;;;;;3.92;1.60;;;;;;;;;;6245863;28;20428;-70
2023/12/22 02:31:52;;;;;;;7.47;1.60;;;;;;;;;;6242846;28;20053;-70
2023/12/22 02:34:55;;;;;;;5.78;1.42;;;;;;;;;;6244313;28;20053;-70
2023/12/22 02:37:58;;;;;;;8.32;1.58;;;;;;;;;;6240457;28;20471;-70
2023/12/22 02:40:59;;;;;;;;;;;;;;;;;;6241852;28;20065;-70
2023/12/22 02:44:00;;;;;;;5.30;1.60;;;;;;;;;;6243411;28;19925;-70
2023/12/22 02:47:01;;;;;;;5.65;2.22;;;;;;;;;;6253574;28;22361;-70
2023/12/22 02:50:02;;;;;;;8.77;2.03;;;;;;;;;;6262033;28;20056;-69
2023/12/22 02:53:02;;;;;;;7.63;2.10;;;;;;;;;;6263171;28;20055;-70
2023/12/22 02:56:04;;;;;;;7.82;2.38;;;;;;;;;;6259558;28;20053;-70
2023/12/22 02:59:04;;;;;;;9.40;2.20;;;;;;;;;;6262312;28;20045;-69
2023/12/22 03:02:06;;;;;;;9.50;2.05;;;;;;;;;;6264180;28;20049;-70
2023/12/22 03:05:07;;;;;;;7.72;3.08;;;;;;;;;;6265827;28;20381;-70
2023/12/22 03:08:08;;;;;;;6.30;1.92;;;;;;;;;;6263865;28;20044;-70
2023/12/22 03:11:08;;;;;;;7.53;1.65;;;;;;;;;;6259508;28;20086;-70
2023/12/22 03:14:10;;;;;;;11.13;1.95;;;;;;;;;;6264678;28;20187;-69
2023/12/22 03:17:11;;;;;;;9.50;2.47;;;;;;;;;;6263320;28;20041;-69
2023/12/22 03:20:11;;;;;;;5.03;1.63;;;;;;;;;;6264549;28;20471;-70
2023/12/22 03:23:12;;;;;;;11.02;2.10;;;;;;;;;;6265253;28;20057;-70
2023/12/22 03:26:14;;;;;;;6.40;1.90;;;;;;;;;;6262529;28;20094;-70
2023/12/22 03:29:15;;;;;;;9.55;2.03;;;;;;;;;;6261324;28;20145;-70
2023/12/22 03:32:16;;;;;;;10.07;2.03;;;;;;;;;;6263004;28;20053;-70
2023/12/22 03:35:17;;;;;;;9.20;1.90;;;;;;;;;;6262807;28;20037;-70
2023/12/22 03:38:17;;;;;;;8.25;2.20;;;;;;;;;;6250525;28;20417;-70
2023/12/22 03:41:18;;;;;;;8.38;1.83;;;;;;;;;;6261887;28;20048;-70
2023/12/22 03:44:19;;;;;;;9.93;1.92;;;;;;;;;;6262321;28;20460;-70
2023/12/22 03:47:19;;;;;;;6.47;1.83;;;;;;;;;;6262321;28;20080;-70
2023/12/22 03:50:20;;;;;;;9.23;1.80;;;;;;;;;;6264238;28;20842;-69
2023/12/22 03:53:21;;;;;;;7.93;1.95;;;;;;;;;;6264266;28;20045;-69
2023/12/22 03:56:21;;;;;;;12.07;2.05;;;;;;;;;;6263079;28;21023;-70
2023/12/22 03:59:22;;;;;;;11.02;2.42;;;;;;;;;;6261575;28;20053;-70
2023/12/22 04:02:23;;;;;;;10.93;2.63;;;;;;;;;;6263570;28;20139;-70
2023/12/22 04:05:24;;;;;;;16.30;2.67;;;;;;;;;;6261453;28;20119;-70
2023/12/22 04:08:25;;;;;;;11.18;1.92;;;;;;;;;;6261509;28;20484;-70
2023/12/22 04:11:25;;;;;;;11.00;1.90;;;;;;;;;;6261388;28;20048;-70
2023/12/22 04:14:26;;;;;;;10.10;1.98;;;;;;;;;;6259361;28;20073;-70
2023/12/22 04:17:26;;;;;;;11.60;2.10;;;;;;;;;;6261476;28;20040;-70
2023/12/22 04:20:28;;;;;;;13.82;2.00;;;;;;;;;;6263952;28;20514;-71
2023/12/22 04:23:29;;;;;;;15.18;2.95;;;;;;;;;;6261554;28;20049;-70
2023/12/22 04:26:30;;;;;;;15.70;2.08;;;;;;;;;;6260999;28;20140;-71
2023/12/22 04:29:30;;;;;;;9.38;2.03;;;;;;;;;;6262804;28;20045;-70
2023/12/22 04:32:31;;;;;;;11.60;2.42;;;;;;;;;;6263126;28;20049;-70
2023/12/22 04:35:32;;;;;;;7.35;1.90;;;;;;;;;;6263252;28;20514;-70
2023/12/22 04:38:33;;;;;;;10.88;2.28;;;;;;;;;;6261719;28;20049;-70
2023/12/22 04:41:33;;;;;;;11.10;2.63;;;;;;;;;;6261997;28;20040;-70
2023/12/22 04:44:34;;;;;;;7.05;1.38;;;;;;;;;;6264976;28;20428;-70
2023/12/22 04:47:35;;;;;;;4.00;1.20;;;;;;;;;;6259613;28;20576;-70
2023/12/22 04:50:36;;;;;;;5.30;1.42;;;;;;;;;;6261443;28;20072;-70
2023/12/22 04:53:36;;;;;;;7.90;1.40;;;;;;;;;;6261453;28;20041;-70
2023/12/22 04:56:37;;;;;;;4.97;1.00;;;;;;;;;;6261548;28;20049;-70
2023/12/22 04:59:37;;;;;;;3.35;1.05;;;;;;;;;;6262243;28;20045;-70
2023/12/22 05:02:38;;;;;;;4.10;1.00;;;;;;;;;;6261956;28;20122;-70
2023/12/22 05:05:39;;;;;;;2.55;1.13;;;;;;;;;;6262364;28;20037;-70
2023/12/22 05:08:40;;;;;;;6.22;1.38;;;;;;;;;;6261848;28;20044;-70
2023/12/22 05:11:40;;;;;;;6.38;1.10;;;;;;;;;;6251863;28;20502;-70
2023/12/22 05:14:41;;;;;;;3.85;1.10;;;;;;;;;;6262512;28;20045;-70
2023/12/22 05:17:42;;;;;;;5.35;1.05;;;;;;;;;;6257541;28;20593;-70
2023/12/22 05:20:44;;;;;;;4.35;0.80;;;;;;;;;;6265426;28;20673;-70
2023/12/22 05:23:45;;;;;;;;;;;;;;;;;;6267050;28;20048;-70
2023/12/22 05:26:46;;;;;;;2.92;1.00;;;;;;;;;;6267817;28;20027;-70
2023/12/22 05:29:47;;;;;;;3.67;1.23;;;;;;;;;;6264514;28;20045;-71
2023/12/22 05:32:48;;;;;;;3.63;1.13;;;;;;;;;;6266457;28;20033;-68
2023/12/22 05:35:48;;;;;;;6.65;1.40;;;;;;;;;;6265902;28;20057;-65
2023/12/22 05:38:49;;;;;;;9.55;1.67;;;;;;;;;;6266214;28;20136;-73
2023/12/22 05:41:50;;;;;;;5.25;1.30;;;;;;;;;;6267065;28;20095;-73
2023/12/22 05:44:51;;;;;;;4.70;1.48;;;;;;;;;;6267053;28;20475;-66
2023/12/22 05:47:52;;;;;;;6.57;1.80;;;;;;;;;;6264065;28;20053;-72
2023/12/22 05:50:52;;;;;;;6.72;1.77;;;;;;;;;;6263157;28;20548;-71
2023/12/22 05:53:53;;;;;;;7.05;1.55;;;;;;;;;;6262904;28;20131;-68
2023/12/22 05:56:54;;;;;;;6.15;2.13;;;;;;;;;;6266715;28;20484;-72
2023/12/22 05:59:55;;;;;;;7.72;2.05;;;;;;;;;;6266802;28;20048;-70
2023/12/22 06:02:56;;;;;;;8.30;1.75;;;;;;;;;;6258290;28;20120;-73
2023/12/22 06:05:56;;;;;;;10.38;2.00;;;;;;;;;;6265743;28;20051;-74
2023/12/22 06:08:57;;;;;;;6.43;1.73;;;;;;;;;;6263949;28;20613;-73
2023/12/22 06:11:58;;;;;;;16.90;2.50;;;;;;;;;;6265926;28;20123;-73
2023/12/22 06:14:58;;;;;;;8.98;2.10;;;;;;;;;;6263409;28;20049;-73
2023/12/22 06:17:59;;;;;;;10.25;2.50;;;;;;;;;;6259850;28;20495;-69
2023/12/22 06:21:00;;;;;;;15.75;2.38;;;;;;;;;;6265916;28;20473;-73
2023/12/22 06:24:00;;;;;;;9.85;2.83;;;;;;;;;;6263378;28;20041;-72
2023/12/22 06:27:01;;;;;;;18.10;2.63;;;;;;;;;;6264697;28;20130;-73
2023/12/22 06:30:02;;;;;;;14.38;2.25;;;;;;;;;;6264803;28;20225;-71
2023/12/22 06:33:03;;;;;;;12.88;2.17;;;;;;;;;;6265360;28;20080;-75
2023/12/22 06:36:04;;;;;;;11.68;2.20;;;;;;;;;;6261541;28;20053;-70
2023/12/22 06:39:05;;;;;;;13.10;2.67;;;;;;;;;;6263297;28;20039;-73
2023/12/22 06:42:10;;;;;;;14.85;2.72;;;;;;;;;;6265427;28;20045;-74
2023/12/22 06:45:11;;;;;;;15.40;2.50;;;;;;;;;;6266265;28;20055;-75
2023/12/22 06:48:12;;;;;;;12.50;2.50;;;;;;;;;;6262576;28;20032;-74
2023/12/22 06:51:20;;;;;;;15.48;3.47;;;;;;;;;;6265934;28;20549;-74
2023/12/22 06:54:20;;;;;;;17.33;3.20;;;;;;;;;;6264549;28;20087;-72
2023/12/22 06:57:22;;;;;;;17.60;2.80;;;;;;;;;;6261883;28;20057;-73
2023/12/22 07:00:22;;;;;;;16.02;2.53;;;;;;;;;;6265550;28;20033;-74
2023/12/22 07:03:23;;;;;;;15.43;3.45;;;;;;;;;;6263435;28;20102;-74
2023/12/22 07:06:28;;;;;;;12.02;3.42;;;;;;;;;;6264338;28;20807;-75
2023/12/22 07:09:30;;;;;;;17.45;3.88;;;;;;;;;;6264162;28;20049;-74
2023/12/22 07:12:31;;;;;;;19.45;4.10;;;;;;;;;;6263350;28;20048;-68
2023/12/22 07:15:31;;;;;;;17.73;4.25;;;;;;;;;;6264602;28;20056;-73
2023/12/22 07:18:32;;;;;;;22.38;5.35;;;;;;;;;;6263736;28;20049;-71
2023/12/22 07:21:33;;;;;;;18.98;4.63;;;;;;;;;;6263676;28;20037;-72
2023/12/22 07:24:34;;;;;;;20.63;5.90;;;;;;;;;;6264541;28;20056;-73
2023/12/22 07:27:34;;;;;;;21.77;4.60;;;;;;;;;;6262213;28;20060;-74
2023/12/22 07:30:35;;;;;;;24.70;5.85;;;;;;;;;;6264514;28;20048;-71
2023/12/22 07:33:36;;;;;;;22.05;5.55;;;;;;;;;;6262723;28;20045;-69
2023/12/22 07:36:36;;;;;;;19.13;5.15;;;;;;;;;;6264487;28;20049;-73
2023/12/22 07:39:39;;;;;;;30.23;5.97;;;;;;;;;;6262863;28;20088;-69
2023/12/22 07:42:39;;;;;;;21.60;4.95;;;;;;;;;;6264397;28;20045;-69
2023/12/22 07:45:40;;;;;;;17.50;4.63;;;;;;;;;;6262085;28;20048;-74
2023/12/22 07:48:41;;;;;;;16.30;4.80;;;;;;;;;;6262162;28;20048;-74
2023/12/22 07:51:42;;;;;;;19.23;4.80;;;;;;;;;;6264873;28;20097;-70
2023/12/22 07:54:43;;;;;;;21.63;4.80;;;;;;;;;;6263328;28;20384;-73
2023/12/22 07:57:45;;;;;;;26.30;5.93;;;;;;;;;;6264392;28;20037;-73
2023/12/22 08:00:46;;;;;;;21.55;6.25;;;;;;;;;;6264379;28;20145;-73
2023/12/22 08:03:46;;;;;;;20.48;5.93;;;;;;;;;;6244710;28;20579;-70
2023/12/22 08:06:56;;;;;;;18.30;4.88;;;;;;;;;;6338313;27;20404;-72
2023/12/22 08:09:57;;;;;;;26.55;5.82;;;;;;;;;;6334246;28;20055;-71
2023/12/22 08:12:57;;;;;;;23.05;5.60;;;;;;;;;;6331567;28;20097;-73
2023/12/22 08:15:58;;;;;;;29.35;5.95;;;;;;;;;;6331862;28;20032;-73
2023/12/22 08:18:58;;;;;;;20.10;6.55;;;;;;;;;;6333966;28;20509;-71
2023/12/22 08:22:00;;;;;;;25.38;5.13;;;;;;;;;;6334594;28;20039;-73
2023/12/22 08:25:01;;;;;;;20.15;5.00;;;;;;;;;;6328874;28;20051;-72
2023/12/22 08:28:02;;;;;;;18.48;5.68;;;;;;;;;;6336032;28;20052;-73
2023/12/22 08:31:03;;;;;;;20.98;5.55;;;;;;;;;;6333244;28;20040;-72
2023/12/22 08:34:05;;;;;;;24.58;6.13;;;;;;;;;;6329488;28;20047;-73
2023/12/22 08:37:05;;;;;;;20.15;5.97;;;;;;;;;;6333739;28;20093;-73
2023/12/22 08:40:07;;;;;;;21.52;4.80;;;;;;;;;;6323406;28;20048;-73
2023/12/22 08:43:07;;;;;;;15.73;4.60;;;;;;;;;;6332122;28;20448;-74
2023/12/22 08:46:09;;;;;;;16.33;5.07;;;;;;;;;;6332835;28;20104;-72
2023/12/22 08:49:10;;;;;;;20.38;5.30;;;;;;;;;;6333894;28;20135;-71
2023/12/22 08:52:11;;;;;;;19.90;6.38;;;;;;;;;;6330213;28;20403;-74
2023/12/22 08:55:11;;;;;;;23.17;5.55;;;;;;;;;;6329933;28;20048;-71
2023/12/22 08:58:12;;;;;;;26.02;6.47;;;;;;;;;;6332456;28;20044;-72
2023/12/22 09:01:16;;;;;;;18.70;4.82;;;;;;;;;;6331839;28;20048;-71
2023/12/22 09:04:17;;;;;;;21.10;5.00;;;;;;;;;;6327067;28;20116;-73
2023/12/22 09:07:19;;;;;;;20.17;5.10;;;;;;;;;;6332627;28;20048;-71
2023/12/22 09:10:19;;;;;;;31.83;7.13;;;;;;;;;;6332337;28;20036;-73
2023/12/22 09:13:20;;;;;;;27.13;6.90;;;;;;;;;;6332088;28;20071;-73
2023/12/22 09:16:24;;;;;;;27.90;6.20;;;;;;;;;;6326370;28;20411;-73
2023/12/22 09:19:26;;;;;;;25.13;6.40;;;;;;;;;;6311775;28;20399;-72
2023/12/22 09:22:27;;;;;;;25.58;6.57;;;;;;;;;;6313847;28;20052;-73
2023/12/22 09:25:27;;;;;;;25.70;6.68;;;;;;;;;;6311435;28;20060;-71
2023/12/22 09:28:28;;;;;;;29.48;11.85;;;;;;;;;;6315535;28;20453;-74
2023/12/22 09:31:29;;;;;;;32.08;12.20;;;;;;;;;;6316055;28;20406;-72
2023/12/22 09:34:30;;;;;;;35.47;9.68;;;;;;;;;;6310024;28;20139;-73
2023/12/22 09:37:30;;;;;;;53.25;21.73;;;;;;;;;;6315468;28;20051;-73
2023/12/22 09:40:34;;;;;;;38.53;11.18;;;;;;;;;;6315542;28;20048;-73
2023/12/22 09:43:38;;;;;;;24.05;8.20;;;;;;;;;;6313738;28;20051;-74
2023/12/22 09:46:40;;;;;;;26.05;6.57;;;;;;;;;;6313881;28;20047;-71
2023/12/22 09:49:42;;;;;;;23.13;6.20;;;;;;;;;;6311724;28;20643;-72
2023/12/22 09:52:46;;;;;;;;;;;;;;;;;;6318320;28;20062;-73
2023/12/22 09:55:48;;;;;;;21.75;5.15;;;;;;;;;;6312120;28;20026;-68
2023/12/22 09:58:53;;;;;;;25.38;8.20;;;;;;;;;;6315086;28;20112;-74
2023/12/22 10:01:55;;;;;;;76.95;28.05;;;;;;;;;;6315798;28;20048;-73
2023/12/22 10:04:57;;;;;;;37.85;12.57;;;;;;;;;;6312805;28;20109;-64
2023/12/22 10:08:00;;;;;;;24.38;6.25;;;;;;;;;;6314648;28;20486;-74
2023/12/22 10:11:02;;;;;;;28.73;5.88;;;;;;;;;;6315319;28;20143;-67
2023/12/22 10:14:04;;;;;;;30.17;5.75;;;;;;;;;;6314543;28;20197;-70
2023/12/22 10:17:05;;;;;;;23.50;5.40;;;;;;;;;;6308828;28;20068;-72
2023/12/22 10:20:06;;;;;;;19.98;4.47;;;;;;;;;;6313134;28;20428;-71
2023/12/22 10:23:07;;;;;;;21.97;6.23;;;;;;;;;;6308217;28;20039;-67
2023/12/22 10:26:13;;;;;;;29.25;6.10;;;;;;;;;;6308200;28;20059;-73
2023/12/22 10:29:14;;;;;;;23.20;5.78;;;;;;;;;;6311248;28;20147;-73
2023/12/22 10:32:16;;;;;;;29.55;6.57;;;;;;;;;;6314618;28;20467;-74
2023/12/22 10:35:17;;;;;;;27.65;6.28;;;;;;;;;;6307299;28;20159;-73
2023/12/22 10:38:19;;;;;;;27.42;7.35;;;;;;;;;;6311790;28;20060;-68
2023/12/22 10:41:20;;;;;;;27.63;6.13;;;;;;;;;;6314170;28;20128;-67
2023/12/22 10:44:24;;;;;;;14.90;4.35;;;;;;;;;;6311865;28;20084;-71
2023/12/22 10:47:24;;;;;;;19.45;4.60;;;;;;;;;;6310574;28;20116;-70
2023/12/22 10:50:25;;;;;;;13.15;4.47;;;;;;;;;;6311846;28;20071;-64
2023/12/22 10:53:26;;;;;;;22.15;4.57;;;;;;;;;;6305920;28;20055;-70
2023/12/22 10:56:28;;;;;;;15.88;4.40;;;;;;;;;;6312026;28;20134;-73
2023/12/22 10:59:30;;;;;;;11.18;3.50;;;;;;;;;;6314205;28;20143;-73
2023/12/22 11:02:34;;;;;;;12.02;3.92;;;;;;;;;;6289845;28;20720;-74
2023/12/22 11:05:36;;;;;;;15.60;5.03;;;;;;;;;;6308531;28;20052;-73
2023/12/22 11:08:39;;;;;;;15.32;4.65;;;;;;;;;;6290127;28;20036;-70
2023/12/22 11:11:40;;;;;;;13.77;4.70;;;;;;;;;;6298282;28;20054;-74
2023/12/22 11:14:42;;;;;;;14.75;4.97;;;;;;;;;;6311891;28;20056;-74
2023/12/22 11:17:43;;;;;;;15.13;4.75;;;;;;;;;;6311430;28;20447;-70
2023/12/22 11:20:45;;;;;;;11.98;3.90;;;;;;;;;;6312811;28;20056;-73
2023/12/22 11:23:47;;;;;;;15.25;3.65;;;;;;;;;;6311902;28;20078;-74
2023/12/22 11:26:50;;;;;;;10.85;2.88;;;;;;;;;;6306380;28;20138;-75
2023/12/22 11:29:51;;;;;;;11.38;3.03;;;;;;;;;;6307423;28;20093;-73
2023/12/22 11:32:54;;;;;;;8.70;2.65;;;;;;;;;;6311092;28;20048;-74
2023/12/22 11:35:56;;;;;;;8.30;2.90;;;;;;;;;;6310908;28;20052;-75
2023/12/22 11:38:57;;;;;;;;;;;;;;;;;;6309408;28;20071;-76
2023/12/22 11:41:58;;;;;;;11.73;2.88;;;;;;;;;;6312883;28;19920;-73
2023/12/22 11:44:59;;;;;;;8.45;2.92;;;;;;;;;;6309107;28;20040;-74
2023/12/22 11:48:08;;;;;;;10.60;2.95;;;;;;;;;;6312370;28;20071;-74
2023/12/22 11:51:15;;;;;;;7.80;2.92;;;;;;;;;;6311857;28;20083;-74
2023/12/22 11:54:49;;;;;;;11.68;3.05;;;;;;;;;;6285970;28;20050;-67
2023/12/22 11:57:51;;;;;;;12.07;3.13;;;;;;;;;;6291316;28;20128;-68
2023/12/22 12:00:52;;;;;;;10.85;3.17;;;;;;;;;;6266119;28;20132;-70
2023/12/22 12:04:06;;;;;;;11.75;3.40;;;;;;;;;;6268835;28;20075;-71
2023/12/22 12:07:39;;;;;;;11.70;2.95;;;;;;;;;;6266431;28;20549;-72
2023/12/22 12:10:49;;;;;;;10.05;3.30;;;;;;;;;;6264077;28;20056;-72
2023/12/22 12:13:50;;;;;;;10.13;3.03;;;;;;;;;;6266065;28;20050;-63
2023/12/22 12:17:00;;;;;;;15.07;3.80;;;;;;;;;;6271301;28;20052;-71
2023/12/22 12:20:00;;;;;;;10.20;3.25;;;;;;;;;;6270519;28;20049;-70
2023/12/22 12:23:02;;;;;;;12.70;3.17;;;;;;;;;;6267328;28;20142;-73
2023/12/22 12:26:04;;;;;;;10.20;2.63;;;;;;;;;;6264966;28;20064;-71
2023/12/22 12:29:04;;;;;;;10.13;2.80;;;;;;;;;;6264138;28;20049;-73
2023/12/22 12:32:06;;;;;;;8.20;2.28;;;;;;;;;;6273974;28;20050;-72
2023/12/22 12:35:06;;;;;;;9.98;3.10;;;;;;;;;;6275981;28;20041;-71
2023/12/22 12:38:08;;;;;;;10.90;3.85;;;;;;;;;;6265419;28;20045;-71
2023/12/22 12:41:12;;;;;;;12.75;3.90;;;;;;;;;;6265439;28;20052;-70
2023/12/22 12:44:14;;;;;;;13.85;3.40;;;;;;;;;;6263095;28;20052;-73
2023/12/22 12:47:15;;;;;;;9.88;2.53;;;;;;;;;;6271925;28;20051;-73
2023/12/22 12:50:21;;;;;;;11.38;2.80;;;;;;;;;;6270259;28;20113;-66
2023/12/22 12:53:22;;;;;;;8.23;2.28;;;;;;;;;;6274327;28;20051;-73
2023/12/22 12:56:23;;;;;;;8.85;2.42;;;;;;;;;;6270139;28;20056;-68
2023/12/22 12:59:24;;;;;;;8.68;2.40;;;;;;;;;;6274371;28;20488;-70
2023/12/22 13:02:26;;;;;;;18.88;3.30;;;;;;;;;;6273344;28;20043;-71
2023/12/22 13:05:27;;;;;;;13.88;2.67;;;;;;;;;;6269002;28;20052;-66
2023/12/22 13:08:28;;;;;;;9.77;2.45;;;;;;;;;;6267936;28;20063;-71
2023/12/22 13:11:32;;;;;;;11.00;2.72;;;;;;;;;;6272685;28;20052;-70
2023/12/22 13:14:33;;;;;;;8.23;2.40;;;;;;;;;;6272399;28;20114;-70
2023/12/22 13:17:33;;;;;;;12.13;3.55;;;;;;;;;;6269970;28;20044;-68
2023/12/22 13:20:35;;;;;;;15.50;3.53;;;;;;;;;;6264613;28;20052;-70
2023/12/22 13:23:35;;;;;;;11.13;3.37;;;;;;;;;;6269406;28;20052;-72
2023/12/22 13:26:38;;;;;;;11.18;3.53;;;;;;;;;;6276179;28;20131;-68
2023/12/22 13:29:43;;;;;;;17.30;3.83;;;;;;;;;;6267573;28;21105;-66
2023/12/22 13:32:48;;;;;;;8.93;2.60;;;;;;;;;;6274158;28;20167;-66
2023/12/22 13:35:49;;;;;;;12.10;3.40;;;;;;;;;;6276178;28;20053;-72
2023/12/22 13:38:50;;;;;;;10.48;3.10;;;;;;;;;;6270391;28;20783;-71
2023/12/22 13:41:50;;;;;;;10.82;2.75;;;;;;;;;;6270543;28;20060;-72
2023/12/22 13:44:52;;;;;;;6.70;3.03;;;;;;;;;;6269163;28;20135;-67
2023/12/22 13:47:52;;;;;;;10.00;3.30;;;;;;;;;;6266134;28;20037;-72
2023/12/22 13:50:58;;;;;;;9.60;2.55;;;;;;;;;;6267902;28;20585;-67
2023/12/22 13:53:59;;;;;;;11.40;2.40;;;;;;;;;;6270351;28;20056;-72
2023/12/22 13:57:01;;;;;;;11.07;2.80;;;;;;;;;;6267604;28;20052;-66
2023/12/22 14:00:22;;;;;;;6.67;2.00;;;;;;;;;;6268735;28;20049;-66
2023/12/22 14:03:23;;;;;;;6.97;2.75;;;;;;;;;;6269655;28;20060;-67
2023/12/22 14:06:28;;;;;;;6.03;1.70;;;;;;;;;;6270896;28;20057;-70
2023/12/22 14:09:33;;;;;;;7.65;2.00;;;;;;;;;;6267141;28;20081;-66
2023/12/22 14:12:33;;;;;;;9.75;2.17;;;;;;;;;;6271567;28;20044;-69
2023/12/22 14:15:34;;;;;;;9.18;2.15;;;;;;;;;;6271413;28;20188;-74
2023/12/22 14:18:35;;;;;;;7.00;2.25;;;;;;;;;;6266065;28;20064;-69
2023/12/22 14:21:36;;;;;;;10.60;2.25;;;;;;;;;;6268926;28;20045;-63
2023/12/22 14:24:37;;;;;;;9.73;1.75;;;;;;;;;;6269813;28;20611;-59
2023/12/22 14:27:38;;;;;;;7.88;1.67;;;;;;;;;;6267278;28;20044;-58
2023/12/22 14:30:38;;;;;;;10.95;2.45;;;;;;;;;;6270252;28;20200;-58
2023/12/22 14:33:39;;;;;;;7.88;2.13;;;;;;;;;;6272979;28;20067;-66
2023/12/22 14:36:40;;;;;;;11.30;2.45;;;;;;;;;;6274115;28;20471;-60
2023/12/22 14:39:40;;;;;;;10.07;1.98;;;;;;;;;;6271698;28;20048;-66
2023/12/22 14:42:41;;;;;;;11.60;2.50;;;;;;;;;;6269894;28;20102;-62
2023/12/22 14:45:42;;;;;;;11.85;2.20;;;;;;;;;;6270880;28;20579;-68
2023/12/22 14:48:43;;;;;;;12.38;2.75;;;;;;;;;;6266154;28;20075;-66
2023/12/22 14:51:46;;;;;;;11.57;2.28;;;;;;;;;;6267591;28;20590;-61
2023/12/22 14:54:46;;;;;;;12.27;2.55;;;;;;;;;;6267170;28;20551;-60
2023/12/22 14:57:47;;;;;;;8.45;2.15;;;;;;;;;;6267937;28;20064;-62
2023/12/22 15:00:47;;;;;;;8.77;2.03;;;;;;;;;;6272529;28;20056;-65
2023/12/22 15:03:49;;;;;;;15.98;2.40;;;;;;;;;;6273881;28;20056;-58
2023/12/22 15:06:49;;;;;;;13.38;2.72;;;;;;;;;;6269794;28;20783;-59
2023/12/22 15:09:50;;;;;;;8.52;2.53;;;;;;;;;;6269290;28;20140;-59
2023/12/22 15:12:51;;;;;;;15.57;2.90;;;;;;;;;;6266501;28;20643;-60
2023/12/22 15:15:52;;;;;;;9.35;2.78;;;;;;;;;;6268777;28;20122;-72
2023/12/22 15:18:52;;;;;;;9.98;2.35;;;;;;;;;;6271094;28;20842;-69
2023/12/22 15:21:53;;;;;;;12.07;2.65;;;;;;;;;;6271797;28;20446;-66
2023/12/22 15:24:54;;;;;;;10.00;2.63;;;;;;;;;;6275934;28;20044;-78
2023/12/22 15:27:55;;;;;;;12.27;3.03;;;;;;;;;;6285575;28;20048;-72
2023/12/22 15:30:55;;;;;;;9.93;2.75;;;;;;;;;;6298297;28;20047;-65
2023/12/22 15:33:57;;;;;;;9.32;2.70;;;;;;;;;;6310614;28;20086;-73
2023/12/22 15:36:59;;;;;;;11.02;3.15;;;;;;;;;;6309505;28;20036;-71
2023/12/22 15:40:00;;;;;;;10.65;3.20;;;;;;;;;;6311847;28;20058;-76
2023/12/22 15:43:00;;;;;;;10.68;2.72;;;;;;;;;;6312715;28;20032;-69
2023/12/22 15:46:09;;;;;;;9.88;2.63;;;;;;;;;;6312446;28;20047;-78
2023/12/22 15:49:10;;;;;;;9.75;3.15;;;;;;;;;;6313689;28;20053;-76
2023/12/22 15:52:11;;;;;;;12.00;3.28;;;;;;;;;;6310763;28;20044;-75
2023/12/22 15:55:11;;;;;;;11.90;2.80;;;;;;;;;;6310820;28;20052;-78
2023/12/22 15:58:12;;;;;;;11.90;2.83;;;;;;;;;;6311567;28;20545;-77
2023/12/22 16:01:16;;;;;;;10.65;3.22;;;;;;;;;;6315078;28;20036;-66
2023/12/22 16:04:17;;;;;;;12.20;3.20;;;;;;;;;;6308072;28;20147;-73
2023/12/22 16:07:17;;;;;;;11.80;2.95;;;;;;;;;;6311077;28;20044;-71
2023/12/22 16:10:18;;;;;;;9.70;2.45;;;;;;;;;;6315780;28;20044;-68
2023/12/22 16:13:20;;;;;;;10.38;2.75;;;;;;;;;;6312820;28;20093;-75
2023/12/22 16:16:20;;;;;;;11.70;3.05;;;;;;;;;;6312321;28;20052;-77
2023/12/22 16:19:21;;;;;;;15.30;2.40;;;;;;;;;;6311002;28;20561;-76
2023/12/22 16:22:22;;;;;;;8.02;2.60;;;;;;;;;;6291755;28;20071;-71
2023/12/22 16:25:22;;;;;;;12.52;2.75;;;;;;;;;;6312322;28;20398;-79
2023/12/22 16:28:23;;;;;;;11.40;2.95;;;;;;;;;;6314171;28;20051;-78
2023/12/22 16:31:27;;;;;;;13.23;2.75;;;;;;;;;;6316237;28;20082;-77
2023/12/22 16:34:28;;;;;;;11.07;2.85;;;;;;;;;;6317819;28;20043;-70
2023/12/22 16:37:28;;;;;;;15.40;3.42;;;;;;;;;;6312077;28;20048;-77
2023/12/22 16:40:29;;;;;;;11.57;3.50;;;;;;;;;;6316000;28;20122;-77
2023/12/22 16:43:30;;;;;;;15.07;3.53;;;;;;;;;;6317681;28;20043;-70
2023/12/22 16:46:31;;;;;;;13.13;3.42;;;;;;;;;;6316333;28;20071;-78
2023/12/22 16:49:31;;;;;;;13.85;3.78;;;;;;;;;;6316979;28;20144;-71
2023/12/22 16:52:33;;;;;;;12.60;4.50;;;;;;;;;;6317529;28;20055;-76
2023/12/22 16:55:34;;;;;;;14.57;4.07;;;;;;;;;;6314140;28;20067;-69
2023/12/22 16:58:36;;;;;;;15.85;4.45;;;;;;;;;;6317708;28;20055;-75
2023/12/22 17:01:36;;;;;;;15.82;5.22;;;;;;;;;;6312954;28;20058;-74
2023/12/22 17:04:37;;;;;;;12.52;3.67;;;;;;;;;;6315611;28;20048;-76
2023/12/22 17:07:38;;;;;;;15.48;3.85;;;;;;;;;;6314894;28;20048;-70
2023/12/22 17:10:39;;;;;;;12.95;3.35;;;;;;;;;;6318077;28;20052;-75
2023/12/22 17:13:40;;;;;;;10.35;3.65;;;;;;;;;;6316011;28;20029;-71
2023/12/22 17:16:41;;;;;;;9.55;2.95;;;;;;;;;;6315312;28;20052;-70
2023/12/22 17:19:41;;;;;;;11.98;3.60;;;;;;;;;;6268596;28;20052;-74
2023/12/22 17:22:42;;;;;;;7.65;2.90;;;;;;;;;;6275922;28;20366;-68
2023/12/22 17:25:43;;;;;;;12.13;3.05;;;;;;;;;;6273560;28;20052;-68
2023/12/22 17:28:44;;;;;;;15.15;3.17;;;;;;;;;;6268207;28;20121;-69
2023/12/22 17:31:45;;;;;;;15.02;3.08;;;;;;;;;;6270044;28;20049;-68
2023/12/22 17:34:46;;;;;;;10.73;3.38;;;;;;;;;;6269335;28;20613;-60
2023/12/22 17:37:46;;;;;;;13.07;3.25;;;;;;;;;;6268075;28;20055;-64
2023/12/22 17:40:47;;;;;;;19.13;3.63;;;;;;;;;;6267607;28;20041;-68
2023/12/22 17:43:48;;;;;;;11.77;3.10;;;;;;;;;;6271028;28;20843;-64
2023/12/22 17:46:48;;;;;;;12.70;3.65;;;;;;;;;;6271183;28;20531;-61
2023/12/22 17:49:49;;;;;;;14.77;3.58;;;;;;;;;;6266591;28;20053;-68
2023/12/22 17:52:50;;;;;;;13.48;3.88;;;;;;;;;;6271345;28;20430;-60
2023/12/22 17:55:51;;;;;;;14.57;3.70;;;;;;;;;;6274655;28;20493;-60
2023/12/22 17:58:51;;;;;;;12.40;3.45;;;;;;;;;;6272480;28;20052;-69